Time;durP1;ratioP1;P1;durP2;ratioP2;P2;SDS_P1;SDS_P2;PMS_P1;PMS_P2;Temp;Humidity;BMP_temperature;BMP_pressure;BME280_temperature;BME280_humidity;BME280_pressure;Samples;Min_cycle;Max_cycle;Signal;HPM_P1;HPM_P2
2022/12/11 07:58:24;;;;;;;49.53;16.10;;;0.90;99.90;;;;;;5066084;28;20459;-62
2022/12/11 08:00:50;;;;;;;51.03;19.58;;;0.90;99.90;;;;;;5061876;28;20029;-63
2022/12/11 08:03:16;;;;;;;49.42;18.13;;;1.00;99.90;;;;;;5068010;28;20092;-61
2022/12/11 08:05:48;;;;;;;54.75;20.23;;;1.10;99.90;;;;;;5068033;28;20020;-61
2022/12/11 08:08:14;;;;;;;56.53;19.63;;;1.10;99.90;;;;;;5063333;28;20014;-62
2022/12/11 08:10:40;;;;;;;49.33;17.95;;;1.30;99.90;;;;;;5046757;28;20367;-61
2022/12/11 08:13:06;;;;;;;42.03;15.52;;;1.30;99.90;;;;;;5046871;28;20026;-61
2022/12/11 08:15:32;;;;;;;38.85;14.75;;;1.40;99.90;;;;;;5047286;28;20021;-63
2022/12/11 08:17:58;;;;;;;40.22;14.93;;;1.50;99.90;;;;;;5047832;28;20029;-60
2022/12/11 08:20:24;;;;;;;39.10;14.52;;;1.50;99.90;;;;;;5046440;28;20025;-61
2022/12/11 08:22:49;;;;;;;42.00;15.10;;;1.50;99.90;;;;;;5043651;28;20017;-61
2022/12/11 08:25:15;;;;;;;44.72;15.45;;;1.60;99.90;;;;;;5039734;28;20029;-62
2022/12/11 08:27:41;;;;;;;41.58;16.20;;;1.60;99.90;;;;;;5027615;28;20022;-61
2022/12/11 08:30:07;;;;;;;37.83;15.30;;;1.60;99.90;;;;;;5025725;28;20383;-62
2022/12/11 08:32:34;;;;;;;37.58;16.23;;;1.60;99.90;;;;;;5032796;28;20036;-61
2022/12/11 08:34:59;;;;;;;40.47;15.50;;;1.70;99.90;;;;;;5032982;28;20791;-61
2022/12/11 08:37:25;;;;;;;42.42;15.75;;;1.70;99.90;;;;;;5047233;28;20120;-61
2022/12/11 08:39:51;;;;;;;35.30;14.95;;;1.70;99.90;;;;;;5045246;28;20029;-61
2022/12/11 08:42:16;;;;;;;34.10;15.77;;;1.80;99.90;;;;;;5044945;28;20025;-62
2022/12/11 08:44:42;;;;;;;42.42;15.70;;;1.80;99.90;;;;;;5046759;28;20025;-61
2022/12/11 08:47:08;;;;;;;41.17;16.02;;;1.80;99.90;;;;;;5047336;28;20385;-61
2022/12/11 08:49:34;;;;;;;40.85;15.85;;;1.80;99.90;;;;;;5046503;28;20022;-62
2022/12/11 08:52:02;;;;;;;42.20;18.02;;;1.80;99.90;;;;;;5047271;28;20017;-62
2022/12/11 08:54:27;;;;;;;40.83;15.95;;;1.80;99.90;;;;;;5046043;28;20025;-63
2022/12/11 08:56:53;;;;;;;30.88;14.32;;;1.80;99.90;;;;;;5046463;28;20056;-62
2022/12/11 08:59:21;;;;;;;32.40;13.27;;;1.80;99.90;;;;;;5047082;28;20482;-63
2022/12/11 09:01:46;;;;;;;32.55;14.00;;;1.80;99.90;;;;;;5031455;28;20401;-61
2022/12/11 09:04:12;;;;;;;31.63;13.88;;;1.80;99.90;;;;;;5026721;28;20112;-61
2022/12/11 09:06:38;;;;;;;34.10;13.35;;;1.80;99.90;;;;;;5027140;28;20018;-61
2022/12/11 09:09:03;;;;;;;33.60;13.40;;;1.80;99.90;;;;;;5016934;28;20432;-61
2022/12/11 09:11:32;;;;;;;30.98;13.15;;;1.90;99.90;;;;;;5013353;28;20026;-61
2022/12/11 09:13:58;;;;;;;43.13;14.70;;;1.90;99.90;;;;;;5013485;28;20402;-63
2022/12/11 09:16:25;;;;;;;36.05;14.05;;;1.90;99.90;;;;;;5043628;28;20041;-61
2022/12/11 09:18:53;;;;;;;32.75;13.38;;;2.00;99.90;;;;;;5052657;28;20055;-61
2022/12/11 09:21:22;;;;;;;34.53;13.45;;;1.90;99.90;;;;;;5053292;28;20020;-60
2022/12/11 09:23:48;;;;;;;32.00;12.55;;;1.90;99.90;;;;;;5031548;28;20033;-61
2022/12/11 09:26:17;;;;;;;27.10;11.95;;;1.90;99.90;;;;;;5020601;28;20084;-61
2022/12/11 09:28:43;;;;;;;31.95;13.50;;;1.90;99.90;;;;;;5035806;28;20030;-64
2022/12/11 09:31:11;;;;;;;36.47;13.88;;;1.90;99.90;;;;;;5029409;28;20025;-62
2022/12/11 09:33:37;;;;;;;37.17;15.38;;;1.90;99.90;;;;;;5031791;28;20469;-62
2022/12/11 09:36:04;;;;;;;34.88;15.10;;;1.90;99.90;;;;;;5030855;28;20032;-61
2022/12/11 09:38:32;;;;;;;30.90;13.57;;;1.90;99.90;;;;;;5031608;28;20029;-62
2022/12/11 09:40:58;;;;;;;28.30;12.60;;;1.90;99.90;;;;;;5032744;28;20051;-61
2022/12/11 09:43:36;;;;;;;25.92;11.32;;;1.90;99.90;;;;;;5030942;28;20028;-62
2022/12/11 09:46:09;;;;;;;33.22;13.73;;;1.90;99.90;;;;;;5028265;28;20073;-63
2022/12/11 09:48:36;;;;;;;32.13;13.77;;;1.90;99.90;;;;;;5039560;28;20140;-61
2022/12/11 09:51:12;;;;;;;31.27;13.77;;;1.90;99.90;;;;;;5051340;28;20063;-61
2022/12/11 09:53:38;;;;;;;30.73;13.40;;;1.90;99.90;;;;;;5036594;28;20017;-61
2022/12/11 09:56:14;;;;;;;31.25;12.23;;;1.90;99.90;;;;;;5032431;28;20446;-60
2022/12/11 09:59:10;;;;;;;30.63;12.50;;;1.90;99.90;;;;;;5032155;28;20037;-61
2022/12/11 10:01:47;;;;;;;27.10;12.70;;;1.90;99.90;;;;;;5032180;28;20336;-61
2022/12/11 10:04:35;;;;;;;25.60;12.45;;;1.90;99.90;;;;;;5034372;28;20029;-61
2022/12/11 10:07:44;;;;;;;36.28;13.20;;;2.00;99.90;;;;;;5051796;28;20084;-61
2022/12/11 10:10:13;;;;;;;32.70;15.05;;;2.00;99.90;;;;;;5052111;28;20024;-61
2022/12/11 10:12:56;;;;;;;37.35;15.68;;;2.00;99.90;;;;;;5052147;28;20029;-61
2022/12/11 10:15:38;;;;;;;33.30;14.43;;;2.00;99.90;;;;;;5050087;28;20025;-61
2022/12/11 10:18:09;;;;;;;35.88;14.65;;;2.10;99.90;;;;;;5052327;28;20397;-61
2022/12/11 10:20:38;;;;;;;36.60;16.20;;;2.10;99.90;;;;;;5050272;28;20025;-60
2022/12/11 10:23:07;;;;;;;34.15;14.43;;;2.10;99.90;;;;;;5030694;28;20032;-60
2022/12/11 10:25:40;;;;;;;33.95;15.43;;;2.10;99.90;;;;;;5031911;28;20101;-61
2022/12/11 10:28:14;;;;;;;29.60;13.57;;;2.10;99.90;;;;;;5015355;28;20044;-61
2022/12/11 10:30:53;;;;;;;31.60;13.40;;;2.20;99.90;;;;;;5012293;28;20029;-61
2022/12/11 10:33:25;;;;;;;31.02;12.07;;;2.20;99.90;;;;;;5012159;28;20437;-61
2022/12/11 10:35:54;;;;;;;29.50;12.63;;;2.20;99.90;;;;;;5014599;28;20034;-61
2022/12/11 10:38:37;;;;;;;32.10;13.52;;;2.20;99.90;;;;;;5015692;28;20482;-61
2022/12/11 10:41:20;;;;;;;28.48;13.35;;;2.30;99.90;;;;;;5012492;28;20501;-61
2022/12/11 10:43:50;;;;;;;24.58;11.88;;;2.30;99.90;;;;;;5027385;28;20116;-61
2022/12/11 10:46:19;;;;;;;27.35;12.88;;;2.20;99.90;;;;;;5012271;28;20026;-61
2022/12/11 10:49:05;;;;;;;23.65;11.27;;;2.20;99.90;;;;;;5026171;28;20084;-61
2022/12/11 10:51:30;;;;;;;25.55;11.63;;;2.20;99.90;;;;;;5010389;28;20038;-61
2022/12/11 10:54:03;;;;;;;28.48;13.35;;;2.30;99.90;;;;;;5011870;28;20022;-61
2022/12/11 10:56:31;;;;;;;29.63;13.23;;;2.30;99.90;;;;;;5013391;28;20128;-61
2022/12/11 10:58:58;;;;;;;26.67;13.43;;;2.30;99.90;;;;;;5031884;28;20026;-61
2022/12/11 11:01:27;;;;;;;29.13;13.20;;;2.30;99.90;;;;;;5031549;28;20037;-61
2022/12/11 11:04:25;;;;;;;30.73;13.23;;;2.30;99.90;;;;;;5030826;28;20078;-62
2022/12/11 11:07:13;;;;;;;38.20;15.65;;;2.30;99.90;;;;;;5028804;28;20074;-62
2022/12/11 11:09:39;;;;;;;35.85;16.92;;;2.30;99.90;;;;;;5028480;28;20503;-63
2022/12/11 11:12:25;;;;;;;32.97;16.60;;;2.40;99.90;;;;;;5031564;28;20061;-61
2022/12/11 11:15:10;;;;;;;35.67;17.00;;;2.40;99.90;;;;;;5031458;28;20438;-62
2022/12/11 11:17:54;;;;;;;35.10;16.80;;;2.40;99.90;;;;;;5019865;28;20038;-61
2022/12/11 11:20:23;;;;;;;39.20;18.35;;;2.30;99.90;;;;;;5011313;28;20022;-61
2022/12/11 11:22:53;;;;;;;35.58;15.73;;;2.40;99.90;;;;;;5011616;28;20034;-61
2022/12/11 11:25:22;;;;;;;33.33;16.25;;;2.40;99.90;;;;;;5020872;28;20037;-61
2022/12/11 11:27:49;;;;;;;32.28;16.50;;;2.40;99.90;;;;;;5031010;28;20021;-61
2022/12/11 11:30:28;;;;;;;30.48;14.45;;;2.40;99.90;;;;;;5031131;28;20052;-61
2022/12/11 11:33:01;;;;;;;27.05;13.35;;;2.40;99.90;;;;;;5030375;28;20031;-61
2022/12/11 11:35:29;;;;;;;29.00;12.38;;;2.40;99.90;;;;;;5029589;28;20025;-60
2022/12/11 11:38:17;;;;;;;26.67;11.88;;;2.50;99.90;;;;;;5029329;28;20032;-60
2022/12/11 11:41:13;;;;;;;22.00;10.90;;;2.50;99.90;;;;;;5031099;28;20032;-60
2022/12/11 11:43:51;;;;;;;26.45;12.68;;;2.50;99.90;;;;;;5024888;28;20064;-61
2022/12/11 11:46:27;;;;;;;26.23;12.10;;;2.60;99.90;;;;;;5030085;28;20026;-61
2022/12/11 11:49:11;;;;;;;28.40;13.18;;;2.60;99.90;;;;;;5030893;28;20175;-60
2022/12/11 11:51:52;;;;;;;25.13;11.82;;;2.60;99.90;;;;;;5030175;28;20030;-61
2022/12/11 11:54:32;;;;;;;33.42;15.23;;;2.60;99.90;;;;;;5028426;28;20036;-61
2022/12/11 11:57:03;;;;;;;36.85;16.38;;;2.60;99.90;;;;;;5029305;28;20037;-60
2022/12/11 11:59:39;;;;;;;40.85;17.55;;;2.60;99.90;;;;;;5029946;28;20022;-60
2022/12/11 12:02:15;;;;;;;40.10;17.42;;;2.60;99.90;;;;;;5028250;28;20112;-60
2022/12/11 12:04:41;;;;;;;31.40;15.85;;;2.60;99.90;;;;;;5028904;28;20052;-60
2022/12/11 12:07:25;;;;;;;35.35;16.98;;;2.60;99.90;;;;;;5030266;28;20112;-60
2022/12/11 12:10:09;;;;;;;30.92;15.25;;;2.60;99.90;;;;;;5028054;28;20083;-60
2022/12/11 12:12:56;;;;;;;29.42;15.23;;;2.60;99.90;;;;;;5029314;28;20033;-60
2022/12/11 12:15:34;;;;;;;30.45;14.68;;;2.50;99.90;;;;;;5029186;28;20017;-60
2022/12/11 12:18:24;;;;;;;29.05;14.38;;;2.60;99.90;;;;;;5029299;28;20038;-60
2022/12/11 12:21:02;;;;;;;33.15;16.50;;;2.60;99.90;;;;;;5030159;28;20029;-60
2022/12/11 12:23:40;;;;;;;31.25;14.70;;;2.60;99.90;;;;;;5030282;28;20030;-60
2022/12/11 12:26:11;;;;;;;26.35;13.70;;;2.60;99.90;;;;;;5029365;28;20025;-59
2022/12/11 12:28:47;;;;;;;;;;;2.60;99.90;;;;;;5030066;28;20048;-59
2022/12/11 12:31:52;;;;;;;28.83;13.25;;;2.60;99.90;;;;;;5030713;28;20044;-59
2022/12/11 12:34:23;;;;;;;30.90;13.15;;;2.60;99.90;;;;;;5028394;28;20143;-60
2022/12/11 12:37:17;;;;;;;26.85;13.10;;;2.60;99.90;;;;;;5030599;28;20033;-63
2022/12/11 12:40:19;;;;;;;30.25;12.00;;;2.50;99.90;;;;;;5034198;28;20021;-61
2022/12/11 12:43:22;;;;;;;33.47;12.05;;;2.60;99.90;;;;;;5033359;28;20500;-60
2022/12/11 12:46:05;;;;;;;25.35;11.90;;;2.50;99.90;;;;;;5033997;28;20111;-60
2022/12/11 12:48:31;;;;;;;26.33;12.70;;;2.50;99.90;;;;;;5033896;28;20026;-59
2022/12/11 12:50:58;;;;;;;25.85;12.88;;;2.50;99.90;;;;;;5032837;28;20039;-60
2022/12/11 12:53:29;;;;;;;26.10;12.82;;;2.60;99.90;;;;;;5033201;28;20092;-60
2022/12/11 12:55:56;;;;;;;30.08;13.25;;;2.60;99.90;;;;;;5032683;28;20382;-62
2022/12/11 12:58:43;;;;;;;27.55;13.77;;;2.60;99.90;;;;;;5032327;28;20068;-61
2022/12/11 13:01:18;;;;;;;26.92;12.52;;;2.60;99.90;;;;;;5030834;28;20501;-60
2022/12/11 13:04:05;;;;;;;24.02;11.25;;;2.60;99.90;;;;;;5033872;28;20030;-59
2022/12/11 13:06:41;;;;;;;27.52;12.90;;;2.50;99.90;;;;;;5030053;28;20026;-59
2022/12/11 13:09:18;;;;;;;25.77;13.15;;;2.50;99.90;;;;;;5024990;28;20029;-61
2022/12/11 13:11:45;;;;;;;29.42;12.73;;;2.50;99.90;;;;;;5014564;28;20118;-61
2022/12/11 13:14:16;;;;;;;26.90;13.32;;;2.50;99.90;;;;;;5032964;28;20493;-60
2022/12/11 13:16:48;;;;;;;26.70;13.57;;;2.50;99.90;;;;;;5033688;28;20038;-59
2022/12/11 13:19:24;;;;;;;;;;;2.50;99.90;;;;;;5032296;28;20067;-62
2022/12/11 13:22:02;;;;;;;25.30;12.85;;;2.50;99.90;;;;;;5031926;28;19941;-62
2022/12/11 13:24:30;;;;;;;30.90;13.98;;;2.50;99.90;;;;;;5029051;28;20470;-61
2022/12/11 13:27:20;;;;;;;31.48;14.45;;;2.50;99.90;;;;;;5015605;28;20025;-61
2022/12/11 13:29:46;;;;;;;25.08;11.05;;;2.50;99.90;;;;;;5031631;28;20041;-60
2022/12/11 13:32:28;;;;;;;34.65;14.52;;;2.50;99.90;;;;;;5026067;28;20113;-61
2022/12/11 13:35:02;;;;;;;29.52;13.95;;;2.50;99.90;;;;;;5014271;28;20026;-60
2022/12/11 13:37:40;;;;;;;25.85;14.73;;;2.50;99.90;;;;;;5026615;28;20107;-62
2022/12/11 13:40:24;;;;;;;25.48;12.45;;;2.50;99.90;;;;;;5032449;28;20470;-61
2022/12/11 13:42:55;;;;;;;28.13;12.73;;;2.50;99.90;;;;;;5022923;28;20018;-61
2022/12/11 13:45:25;;;;;;;26.23;12.18;;;2.50;99.90;;;;;;5030095;28;20029;-61
2022/12/11 13:47:51;;;;;;;27.08;12.07;;;2.50;99.90;;;;;;5029883;28;20060;-63
2022/12/11 13:50:30;;;;;;;26.38;12.80;;;2.50;99.90;;;;;;5031507;28;20033;-62
2022/12/11 13:53:00;;;;;;;34.55;14.60;;;2.50;99.90;;;;;;5030208;28;20021;-62
2022/12/11 13:55:28;;;;;;;28.58;14.18;;;2.40;99.90;;;;;;5029477;28;20108;-62
2022/12/11 13:57:55;;;;;;;27.30;14.07;;;2.40;99.90;;;;;;5029919;28;20502;-62
2022/12/11 14:00:24;;;;;;;30.58;14.48;;;2.40;99.90;;;;;;5030440;28;20140;-61
2022/12/11 14:02:53;;;;;;;30.40;13.82;;;2.40;99.90;;;;;;5032743;28;20036;-63
2022/12/11 15:26:48;;;;;;;24.83;10.23;;;1.20;99.90;;;;;;5070494;27;1243332;-63
2022/12/11 15:29:36;;;;;;;24.67;11.63;;;1.20;99.90;;;;;;5069767;28;20064;-63
2022/12/11 15:32:13;;;;;;;26.33;12.13;;;1.30;99.90;;;;;;5089552;28;20458;-62
2022/12/11 15:34:46;;;;;;;32.90;13.00;;;1.40;99.90;;;;;;5108009;28;20020;-64
2022/12/11 15:37:18;;;;;;;27.70;12.65;;;1.50;99.90;;;;;;5089128;28;20464;-62
2022/12/11 15:39:44;;;;;;;30.15;13.45;;;1.60;99.90;;;;;;5105519;28;20028;-62
2022/12/11 15:42:14;;;;;;;30.02;12.07;;;1.60;99.90;;;;;;5107462;28;20525;-62
2022/12/11 15:44:41;;;;;;;25.48;12.20;;;1.70;99.90;;;;;;5088566;28;20103;-62
2022/12/11 15:47:14;;;;;;;27.25;12.43;;;1.70;99.90;;;;;;5089994;28;20024;-62
2022/12/11 15:49:40;;;;;;;28.27;13.10;;;1.80;99.90;;;;;;5088942;28;20073;-63
2022/12/11 15:52:06;;;;;;;30.27;13.88;;;1.90;99.90;;;;;;5106468;28;20023;-63
2022/12/11 15:54:31;;;;;;;26.50;11.73;;;1.90;99.90;;;;;;5088793;28;20349;-62
2022/12/11 15:57:00;;;;;;;25.63;12.30;;;1.90;99.90;;;;;;5107201;28;20020;-62
2022/12/11 15:59:26;;;;;;;26.58;13.57;;;2.00;99.90;;;;;;5090766;28;20042;-65
2022/12/11 16:01:52;;;;;;;29.52;12.80;;;2.00;99.90;;;;;;5088965;28;20024;-64
2022/12/11 16:04:17;;;;;;;25.55;12.88;;;2.00;99.90;;;;;;5106466;28;20431;-63
2022/12/11 16:06:45;;;;;;;24.42;12.93;;;2.00;99.90;;;;;;5092855;28;20048;-64
2022/12/11 16:09:10;;;;;;;27.02;13.88;;;2.00;99.90;;;;;;5103222;28;20023;-64
2022/12/11 16:11:36;;;;;;;30.20;15.48;;;2.00;99.90;;;;;;5106459;28;20115;-64
2022/12/11 16:14:04;;;;;;;30.50;14.75;;;2.10;99.90;;;;;;5106823;28;20020;-63
2022/12/11 16:16:30;;;;;;;31.80;16.55;;;2.00;99.90;;;;;;5108126;28;20024;-65
2022/12/11 16:18:56;;;;;;;33.67;15.95;;;2.10;99.90;;;;;;5107208;28;20023;-64
2022/12/11 16:21:22;;;;;;;29.38;15.52;;;2.10;99.90;;;;;;5108447;28;20032;-64
2022/12/11 16:23:47;;;;;;;33.22;15.75;;;2.10;99.90;;;;;;5104201;28;20028;-64
2022/12/11 16:26:14;;;;;;;30.00;14.50;;;2.10;99.90;;;;;;5106467;28;20385;-64
2022/12/11 16:28:40;;;;;;;24.60;12.20;;;2.10;99.90;;;;;;5107375;28;20020;-63
2022/12/11 16:31:10;;;;;;;26.00;12.52;;;2.10;99.90;;;;;;5095314;28;20047;-64
2022/12/11 16:33:36;;;;;;;24.25;13.77;;;2.10;99.90;;;;;;5104342;28;20020;-64
2022/12/11 16:36:10;;;;;;;27.10;14.13;;;2.10;99.90;;;;;;5105956;28;20027;-63
2022/12/11 16:38:36;;;;;;;28.48;11.95;;;2.00;99.90;;;;;;5089908;28;20031;-64
2022/12/11 16:41:01;;;;;;;25.25;11.68;;;2.10;99.90;;;;;;5092430;28;20016;-63
2022/12/11 16:43:27;;;;;;;23.50;11.68;;;2.10;99.90;;;;;;5093736;28;20384;-63
2022/12/11 16:45:54;;;;;;;23.83;11.55;;;2.10;99.90;;;;;;5092719;28;20182;-62
2022/12/11 16:48:20;;;;;;;27.42;13.48;;;2.10;99.90;;;;;;5092708;28;20019;-62
2022/12/11 16:50:46;;;;;;;22.65;11.25;;;2.00;99.90;;;;;;5092006;28;20028;-63
2022/12/11 16:53:13;;;;;;;29.02;12.98;;;2.00;99.90;;;;;;5086582;28;20476;-61
2022/12/11 16:55:39;;;;;;;26.38;12.77;;;2.00;99.90;;;;;;5093419;28;20031;-61
2022/12/11 16:58:06;;;;;;;27.80;13.23;;;2.00;99.90;;;;;;5075101;28;20036;-61
2022/12/11 17:00:32;;;;;;;33.45;13.63;;;2.00;99.90;;;;;;5092626;28;20081;-61
2022/12/11 17:02:57;;;;;;;25.75;12.93;;;2.00;99.90;;;;;;5073080;28;20016;-61
2022/12/11 17:05:23;;;;;;;23.48;12.55;;;2.00;99.90;;;;;;5093384;28;20494;-62
2022/12/11 17:07:49;;;;;;;30.08;13.32;;;2.00;99.90;;;;;;5089636;28;20472;-61
2022/12/11 17:10:15;;;;;;;25.00;12.98;;;2.10;99.90;;;;;;5091139;28;20020;-62
2022/12/11 17:12:40;;;;;;;27.05;12.65;;;2.00;99.90;;;;;;5091200;28;20063;-61
2022/12/11 17:15:06;;;;;;;27.30;13.93;;;2.00;99.90;;;;;;5093127;28;20016;-62
2022/12/11 17:17:32;;;;;;;28.27;14.00;;;2.00;99.90;;;;;;5071713;28;20032;-62
2022/12/11 17:19:58;;;;;;;26.05;12.90;;;2.00;99.90;;;;;;5090706;28;20017;-62
2022/12/11 17:22:24;;;;;;;28.90;13.77;;;1.90;99.90;;;;;;5089534;28;20039;-63
2022/12/11 17:24:49;;;;;;;30.17;14.38;;;2.00;99.90;;;;;;5076836;28;20495;-62
2022/12/11 17:27:15;;;;;;;30.33;13.70;;;1.90;99.90;;;;;;5075557;28;20028;-63
2022/12/11 17:29:40;;;;;;;28.30;13.48;;;1.90;99.90;;;;;;5071625;28;20017;-63
2022/12/11 17:32:06;;;;;;;30.30;13.25;;;1.90;99.90;;;;;;5090539;28;20445;-63
2022/12/11 17:34:32;;;;;;;34.88;15.65;;;2.00;99.90;;;;;;5089488;28;20039;-63
2022/12/11 17:36:58;;;;;;;30.65;13.88;;;1.90;99.90;;;;;;5090784;28;20507;-64
2022/12/11 17:39:23;;;;;;;25.52;11.90;;;1.90;99.90;;;;;;5079994;28;20070;-63
2022/12/11 17:41:49;;;;;;;25.40;12.07;;;1.90;99.90;;;;;;5085473;28;20028;-62
2022/12/11 17:44:15;;;;;;;27.95;13.25;;;1.90;99.90;;;;;;5090913;28;20362;-64
2022/12/11 17:46:40;;;;;;;26.55;12.85;;;1.90;99.90;;;;;;5072117;28;20137;-62
2022/12/11 17:49:06;;;;;;;27.30;13.27;;;1.90;99.90;;;;;;5089474;28;20477;-62
2022/12/11 17:51:31;;;;;;;30.17;14.07;;;1.90;99.90;;;;;;5090047;28;20025;-63
2022/12/11 17:53:57;;;;;;;29.15;14.05;;;1.90;99.90;;;;;;5090250;28;20020;-62
2022/12/11 17:56:23;;;;;;;29.35;13.48;;;1.90;99.90;;;;;;5089713;28;20024;-62
2022/12/11 17:58:49;;;;;;;27.10;13.57;;;1.80;99.90;;;;;;5089575;28;20020;-62
2022/12/11 18:01:15;;;;;;;27.15;12.98;;;1.90;99.90;;;;;;5081570;28;20035;-64
2022/12/11 18:03:41;;;;;;;25.50;12.77;;;1.90;99.90;;;;;;5081712;28;20020;-63
2022/12/11 18:06:10;;;;;;;26.58;12.30;;;1.90;99.90;;;;;;5089912;28;20038;-64
2022/12/11 18:08:36;;;;;;;24.60;11.98;;;1.90;99.90;;;;;;5090549;28;20027;-63
2022/12/11 18:11:08;;;;;;;26.48;13.27;;;1.90;99.90;;;;;;5087955;28;20031;-63
2022/12/11 18:13:34;;;;;;;24.45;12.10;;;1.90;99.90;;;;;;5088597;28;20135;-64
2022/12/11 18:16:10;;;;;;;24.10;12.57;;;1.90;99.90;;;;;;5089432;28;20459;-64
2022/12/11 18:18:35;;;;;;;24.17;12.48;;;1.90;99.90;;;;;;5090343;28;20078;-64
2022/12/11 18:21:01;;;;;;;26.23;12.57;;;1.90;99.90;;;;;;5089330;28;20464;-63
2022/12/11 18:23:27;;;;;;;20.60;11.25;;;1.90;99.90;;;;;;5090080;28;20035;-63
2022/12/11 18:25:53;;;;;;;24.08;11.32;;;1.90;99.90;;;;;;5088456;28;20076;-64
2022/12/11 18:28:19;;;;;;;26.15;12.38;;;1.90;99.90;;;;;;5070942;28;20033;-64
2022/12/11 18:30:45;;;;;;;25.08;11.90;;;1.90;99.90;;;;;;5051910;28;20021;-64
2022/12/11 18:33:11;;;;;;;27.02;12.52;;;1.90;99.90;;;;;;5084747;28;20060;-64
2022/12/11 18:35:37;;;;;;;25.42;14.38;;;1.90;99.90;;;;;;5091025;28;20031;-64
2022/12/11 18:38:03;;;;;;;30.02;15.30;;;1.90;99.90;;;;;;5089304;28;20027;-64
2022/12/11 18:40:29;;;;;;;34.92;16.65;;;1.90;99.90;;;;;;5090719;28;20032;-64
2022/12/11 18:42:55;;;;;;;34.90;18.73;;;1.90;99.90;;;;;;5089850;28;20125;-63
2022/12/11 18:45:20;;;;;;;36.47;19.27;;;1.90;99.90;;;;;;5090787;28;20028;-64
2022/12/11 18:47:46;;;;;;;34.58;16.60;;;1.90;99.90;;;;;;5069773;28;20035;-64
2022/12/11 18:50:13;;;;;;;33.35;17.20;;;1.90;99.90;;;;;;5090865;28;20098;-64
2022/12/11 18:52:38;;;;;;;28.52;15.98;;;1.90;99.90;;;;;;5089677;28;20020;-63
2022/12/11 18:55:05;;;;;;;36.83;16.45;;;1.90;99.90;;;;;;5089786;28;20464;-63
2022/12/11 18:57:31;;;;;;;30.92;16.50;;;1.90;99.90;;;;;;5088373;28;20028;-63
2022/12/11 19:00:01;;;;;;;30.20;16.15;;;1.90;99.90;;;;;;5087895;28;20099;-62
2022/12/11 19:02:28;;;;;;;26.67;14.07;;;1.90;99.90;;;;;;5071179;28;20034;-63
2022/12/11 19:04:53;;;;;;;25.73;13.85;;;1.90;99.90;;;;;;5069468;28;20115;-63
2022/12/11 19:07:19;;;;;;;27.05;13.77;;;1.90;99.90;;;;;;5053956;28;20196;-63
2022/12/11 19:09:45;;;;;;;30.27;14.00;;;1.90;99.90;;;;;;5088901;28;20520;-62
2022/12/11 19:12:10;;;;;;;30.92;13.80;;;1.90;99.90;;;;;;5089446;28;20028;-63
2022/12/11 19:14:36;;;;;;;30.77;14.90;;;1.90;99.90;;;;;;5089978;28;20113;-63
2022/12/11 19:17:02;;;;;;;25.88;13.90;;;1.90;99.90;;;;;;5089499;28;20461;-63
2022/12/11 19:19:27;;;;;;;29.50;14.40;;;1.90;99.90;;;;;;5088761;28;20392;-64
2022/12/11 19:21:53;;;;;;;26.98;12.30;;;1.90;99.90;;;;;;5088805;28;20032;-63
2022/12/11 19:24:21;;;;;;;30.38;13.93;;;1.90;99.90;;;;;;5089542;28;20027;-63
2022/12/11 19:26:47;;;;;;;26.10;12.70;;;2.00;99.90;;;;;;5088968;28;20076;-63
2022/12/11 19:29:22;;;;;;;26.02;11.85;;;1.90;99.90;;;;;;5088802;28;20128;-63
2022/12/11 19:31:48;;;;;;;26.15;13.05;;;1.90;99.90;;;;;;5087729;28;20055;-63
2022/12/11 19:34:14;;;;;;;26.83;13.35;;;1.90;99.90;;;;;;5088697;28;20542;-63
2022/12/11 19:36:40;;;;;;;26.17;13.85;;;1.90;99.90;;;;;;5089765;28;20028;-63
2022/12/11 19:39:05;;;;;;;25.73;12.38;;;1.90;99.90;;;;;;5090057;28;20385;-63
2022/12/11 19:41:31;;;;;;;28.17;13.18;;;1.90;99.90;;;;;;5087547;28;20464;-63
2022/12/11 19:43:57;;;;;;;25.20;13.57;;;1.90;99.90;;;;;;5088746;28;20501;-63
2022/12/11 19:46:24;;;;;;;27.83;12.15;;;1.80;99.90;;;;;;5070294;28;20040;-64
2022/12/11 19:48:52;;;;;;;26.85;13.05;;;1.90;99.90;;;;;;5088380;28;20028;-62
2022/12/11 19:51:30;;;;;;;23.85;13.02;;;1.90;99.90;;;;;;5088442;28;20024;-63
2022/12/11 19:53:56;;;;;;;25.02;13.10;;;1.90;99.90;;;;;;5089862;28;20028;-63
2022/12/11 19:56:22;;;;;;;29.02;13.40;;;1.90;99.90;;;;;;5088989;28;20048;-64
2022/12/11 19:58:48;;;;;;;25.52;13.00;;;1.90;99.90;;;;;;5089691;28;20073;-63
2022/12/11 20:01:27;;;;;;;32.95;13.88;;;1.90;99.90;;;;;;5087607;28;20116;-63
2022/12/11 20:03:55;;;;;;;28.90;12.25;;;1.90;99.90;;;;;;5088130;28;20117;-63
2022/12/11 20:06:22;;;;;;;23.30;11.45;;;1.90;99.90;;;;;;5088836;28;20097;-63
2022/12/11 20:08:48;;;;;;;27.55;13.27;;;1.90;99.90;;;;;;5089747;28;20377;-64
2022/12/11 20:11:15;;;;;;;25.92;12.52;;;1.90;99.90;;;;;;5088228;28;20024;-63
2022/12/11 20:13:41;;;;;;;30.00;14.23;;;1.90;99.90;;;;;;5091961;28;20046;-63
2022/12/11 20:16:09;;;;;;;29.20;13.93;;;1.90;99.90;;;;;;5074864;28;20040;-64
2022/12/11 20:18:35;;;;;;;27.65;14.32;;;1.90;99.90;;;;;;5058734;28;20032;-63
2022/12/11 20:21:03;;;;;;;29.88;14.60;;;1.90;99.90;;;;;;5091471;28;20043;-63
2022/12/11 20:23:28;;;;;;;28.38;14.25;;;1.90;99.90;;;;;;5092228;28;20016;-64
2022/12/11 20:25:54;;;;;;;23.77;12.50;;;1.90;99.90;;;;;;5093068;28;20052;-63
2022/12/11 20:28:20;;;;;;;24.13;12.90;;;1.90;99.90;;;;;;5092757;28;20024;-63
2022/12/11 20:30:48;;;;;;;30.98;14.05;;;1.90;99.90;;;;;;5092245;28;20024;-64
2022/12/11 20:33:14;;;;;;;25.42;13.13;;;1.90;99.90;;;;;;5091900;28;20047;-64
2022/12/11 20:35:41;;;;;;;32.00;15.57;;;1.90;99.90;;;;;;5092098;28;20028;-64
2022/12/11 20:38:07;;;;;;;36.20;18.00;;;1.90;99.90;;;;;;5090333;28;20488;-63
2022/12/11 20:40:33;;;;;;;36.90;17.10;;;1.90;99.90;;;;;;5093163;28;20023;-64
2022/12/11 20:42:59;;;;;;;32.20;16.05;;;1.80;99.90;;;;;;5092834;28;20028;-64
2022/12/11 20:45:24;;;;;;;33.97;15.20;;;1.90;99.90;;;;;;5074316;28;20039;-64
2022/12/11 20:47:50;;;;;;;33.17;15.07;;;1.80;99.90;;;;;;5091276;28;20032;-64
2022/12/11 20:50:16;;;;;;;32.88;14.38;;;1.80;99.90;;;;;;5091794;28;20484;-63
2022/12/11 20:52:42;;;;;;;32.80;15.20;;;1.80;99.90;;;;;;5091939;28;20020;-63
2022/12/11 20:55:08;;;;;;;28.20;14.57;;;1.80;99.90;;;;;;5093387;28;20028;-64
2022/12/11 20:57:33;;;;;;;27.35;13.90;;;1.80;99.90;;;;;;5089822;28;20035;-63
2022/12/11 20:59:59;;;;;;;31.70;15.18;;;1.90;99.90;;;;;;5090284;28;20036;-63
2022/12/11 21:02:25;;;;;;;28.90;13.93;;;1.90;99.90;;;;;;5091978;28;20068;-63
2022/12/11 21:04:51;;;;;;;29.85;15.10;;;1.80;99.90;;;;;;5092148;28;20036;-63
2022/12/11 21:07:16;;;;;;;31.58;15.05;;;1.90;99.90;;;;;;5092225;28;20150;-63
2022/12/11 21:09:42;;;;;;;33.97;15.02;;;1.90;99.90;;;;;;5091570;28;20031;-63
2022/12/11 21:12:08;;;;;;;28.45;14.32;;;1.90;99.90;;;;;;5091024;28;20035;-63
2022/12/11 21:14:34;;;;;;;31.73;13.90;;;1.90;99.90;;;;;;5072539;28;20024;-63
2022/12/11 21:16:59;;;;;;;27.67;13.70;;;1.80;99.90;;;;;;5092133;28;20047;-63
2022/12/11 21:19:25;;;;;;;27.38;12.10;;;1.80;99.90;;;;;;5090197;28;20477;-63
2022/12/11 21:21:51;;;;;;;25.85;13.05;;;1.90;99.90;;;;;;5090313;28;20167;-64
2022/12/11 21:24:21;;;;;;;24.55;12.25;;;1.80;99.90;;;;;;5092400;28;20637;-63
2022/12/11 21:26:48;;;;;;;28.92;12.63;;;1.90;99.90;;;;;;5089299;28;20403;-62
2022/12/11 21:29:14;;;;;;;26.38;13.25;;;1.90;99.90;;;;;;5090728;28;20043;-64
2022/12/11 21:31:41;;;;;;;26.15;11.93;;;1.90;99.90;;;;;;5089095;28;20024;-63
2022/12/11 21:34:06;;;;;;;26.95;13.10;;;1.90;99.90;;;;;;5091509;28;20073;-63
